sensor_id;sensor_type;location;lat;lon;timestamp;P1;durP1;ratioP1;P2;durP2;ratioP2
16286;SDS011;8251;53.568;10.018;2023-02-28T00:00:50;3.37;;;1.70;;
16286;SDS011;8251;53.568;10.018;2023-02-28T00:03:22;4.40;;;1.73;;
16286;SDS011;8251;53.568;10.018;2023-02-28T00:05:52;3.00;;;1.50;;
16286;SDS011;8251;53.568;10.018;2023-02-28T00:08:37;3.93;;;1.57;;
16286;SDS011;8251;53.568;10.018;2023-02-28T00:11:10;4.60;;;1.47;;
16286;SDS011;8251;53.568;10.018;2023-02-28T00:13:44;1.63;;;1.10;;
16286;SDS011;8251;53.568;10.018;2023-02-28T00:16:17;3.57;;;1.27;;
16286;SDS011;8251;53.568;10.018;2023-02-28T00:18:48;4.90;;;1.13;;
16286;SDS011;8251;53.568;10.018;2023-02-28T00:21:19;4.03;;;1.40;;
16286;SDS011;8251;53.568;10.018;2023-02-28T00:23:48;4.23;;;1.87;;
16286;SDS011;8251;53.568;10.018;2023-02-28T00:26:23;2.60;;;1.37;;
16286;SDS011;8251;53.568;10.018;2023-02-28T00:28:52;2.97;;;1.30;;
16286;SDS011;8251;53.568;10.018;2023-02-28T00:31:23;5.87;;;1.47;;
16286;SDS011;8251;53.568;10.018;2023-02-28T00:33:52;4.80;;;1.60;;
16286;SDS011;8251;53.568;10.018;2023-02-28T00:36:25;1.97;;;1.60;;
16286;SDS011;8251;53.568;10.018;2023-02-28T00:38:54;3.87;;;1.33;;
16286;SDS011;8251;53.568;10.018;2023-02-28T00:41:32;1.63;;;1.20;;
16286;SDS011;8251;53.568;10.018;2023-02-28T00:44:01;3.30;;;1.73;;
16286;SDS011;8251;53.568;10.018;2023-02-28T00:46:34;3.67;;;1.80;;
16286;SDS011;8251;53.568;10.018;2023-02-28T00:49:06;3.53;;;1.40;;
16286;SDS011;8251;53.568;10.018;2023-02-28T00:51:34;4.03;;;1.67;;
16286;SDS011;8251;53.568;10.018;2023-02-28T00:54:03;3.83;;;1.80;;
16286;SDS011;8251;53.568;10.018;2023-02-28T00:56:34;3.83;;;1.50;;
16286;SDS011;8251;53.568;10.018;2023-02-28T00:59:02;5.17;;;1.80;;
16286;SDS011;8251;53.568;10.018;2023-02-28T01:01:32;3.27;;;1.63;;
16286;SDS011;8251;53.568;10.018;2023-02-28T01:04:00;3.27;;;1.70;;
16286;SDS011;8251;53.568;10.018;2023-02-28T01:06:48;4.67;;;1.60;;
16286;SDS011;8251;53.568;10.018;2023-02-28T01:09:17;4.30;;;1.70;;
16286;SDS011;8251;53.568;10.018;2023-02-28T01:11:46;7.57;;;1.70;;
16286;SDS011;8251;53.568;10.018;2023-02-28T01:14:15;6.07;;;1.63;;
16286;SDS011;8251;53.568;10.018;2023-02-28T01:16:46;3.83;;;1.40;;
16286;SDS011;8251;53.568;10.018;2023-02-28T01:19:18;4.23;;;1.43;;
16286;SDS011;8251;53.568;10.018;2023-02-28T01:21:49;8.57;;;3.80;;
16286;SDS011;8251;53.568;10.018;2023-02-28T01:24:19;2.53;;;1.60;;
16286;SDS011;8251;53.568;10.018;2023-02-28T01:26:52;2.93;;;1.70;;
16286;SDS011;8251;53.568;10.018;2023-02-28T01:29:23;4.70;;;1.60;;
16286;SDS011;8251;53.568;10.018;2023-02-28T01:32:11;3.43;;;1.60;;
16286;SDS011;8251;53.568;10.018;2023-02-28T01:34:49;2.03;;;1.47;;
16286;SDS011;8251;53.568;10.018;2023-02-28T01:37:21;1.93;;;1.30;;
16286;SDS011;8251;53.568;10.018;2023-02-28T01:39:55;3.53;;;1.53;;
16286;SDS011;8251;53.568;10.018;2023-02-28T01:42:25;3.43;;;1.63;;
16286;SDS011;8251;53.568;10.018;2023-02-28T01:45:05;4.20;;;1.73;;
16286;SDS011;8251;53.568;10.018;2023-02-28T01:47:54;4.43;;;1.70;;
16286;SDS011;8251;53.568;10.018;2023-02-28T01:50:27;5.67;;;2.47;;
16286;SDS011;8251;53.568;10.018;2023-02-28T01:53:00;5.37;;;1.90;;
16286;SDS011;8251;53.568;10.018;2023-02-28T01:55:41;4.13;;;1.73;;
16286;SDS011;8251;53.568;10.018;2023-02-28T01:58:16;6.20;;;1.63;;
16286;SDS011;8251;53.568;10.018;2023-02-28T02:00:49;6.03;;;1.63;;
16286;SDS011;8251;53.568;10.018;2023-02-28T02:03:22;2.20;;;1.20;;
16286;SDS011;8251;53.568;10.018;2023-02-28T02:06:04;5.40;;;1.83;;
16286;SDS011;8251;53.568;10.018;2023-02-28T02:08:34;2.93;;;1.40;;
16286;SDS011;8251;53.568;10.018;2023-02-28T02:11:03;2.47;;;1.70;;
16286;SDS011;8251;53.568;10.018;2023-02-28T02:13:50;5.30;;;1.73;;
16286;SDS011;8251;53.568;10.018;2023-02-28T02:16:39;2.33;;;1.90;;
16286;SDS011;8251;53.568;10.018;2023-02-28T02:19:36;4.77;;;1.50;;
16286;SDS011;8251;53.568;10.018;2023-02-28T02:23:02;4.07;;;1.80;;
16286;SDS011;8251;53.568;10.018;2023-02-28T02:25:59;5.00;;;1.43;;
16286;SDS011;8251;53.568;10.018;2023-02-28T02:32:13;2.30;;;1.30;;
16286;SDS011;8251;53.568;10.018;2023-02-28T02:35:06;3.77;;;1.90;;
16286;SDS011;8251;53.568;10.018;2023-02-28T02:37:40;4.13;;;1.30;;
16286;SDS011;8251;53.568;10.018;2023-02-28T02:40:27;4.77;;;1.60;;
16286;SDS011;8251;53.568;10.018;2023-02-28T02:43:11;4.20;;;1.63;;
16286;SDS011;8251;53.568;10.018;2023-02-28T02:45:47;2.37;;;1.80;;
16286;SDS011;8251;53.568;10.018;2023-02-28T02:48:21;6.37;;;1.80;;
16286;SDS011;8251;53.568;10.018;2023-02-28T02:51:04;3.97;;;1.90;;
16286;SDS011;8251;53.568;10.018;2023-02-28T02:53:40;3.43;;;2.03;;
16286;SDS011;8251;53.568;10.018;2023-02-28T02:56:21;2.13;;;1.40;;
16286;SDS011;8251;53.568;10.018;2023-02-28T02:58:57;8.57;;;2.10;;
16286;SDS011;8251;53.568;10.018;2023-02-28T03:01:30;3.67;;;2.00;;
16286;SDS011;8251;53.568;10.018;2023-02-28T03:04:01;4.33;;;1.77;;
16286;SDS011;8251;53.568;10.018;2023-02-28T03:06:34;6.13;;;2.43;;
16286;SDS011;8251;53.568;10.018;2023-02-28T03:09:05;6.70;;;2.13;;
16286;SDS011;8251;53.568;10.018;2023-02-28T03:11:35;5.73;;;2.67;;
16286;SDS011;8251;53.568;10.018;2023-02-28T03:14:21;4.37;;;1.80;;
16286;SDS011;8251;53.568;10.018;2023-02-28T03:17:12;4.60;;;2.10;;
16286;SDS011;8251;53.568;10.018;2023-02-28T03:20:05;3.07;;;1.93;;
16286;SDS011;8251;53.568;10.018;2023-02-28T03:22:57;5.37;;;2.23;;
16286;SDS011;8251;53.568;10.018;2023-02-28T03:25:37;5.33;;;2.30;;
16286;SDS011;8251;53.568;10.018;2023-02-28T03:28:16;5.30;;;2.10;;
16286;SDS011;8251;53.568;10.018;2023-02-28T03:30:50;4.23;;;1.83;;
16286;SDS011;8251;53.568;10.018;2023-02-28T03:33:23;8.23;;;2.00;;
16286;SDS011;8251;53.568;10.018;2023-02-28T03:35:58;2.50;;;1.70;;
16286;SDS011;8251;53.568;10.018;2023-02-28T03:38:37;3.43;;;2.33;;
16286;SDS011;8251;53.568;10.018;2023-02-28T03:41:10;5.30;;;2.17;;
16286;SDS011;8251;53.568;10.018;2023-02-28T03:43:43;6.47;;;2.00;;
16286;SDS011;8251;53.568;10.018;2023-02-28T03:46:16;4.93;;;2.23;;
16286;SDS011;8251;53.568;10.018;2023-02-28T03:48:51;2.97;;;2.07;;
16286;SDS011;8251;53.568;10.018;2023-02-28T03:51:23;4.30;;;2.43;;
16286;SDS011;8251;53.568;10.018;2023-02-28T03:54:06;2.43;;;1.90;;
16286;SDS011;8251;53.568;10.018;2023-02-28T03:56:48;3.47;;;1.83;;
16286;SDS011;8251;53.568;10.018;2023-02-28T03:59:22;6.40;;;2.27;;
16286;SDS011;8251;53.568;10.018;2023-02-28T04:01:53;4.47;;;2.00;;
16286;SDS011;8251;53.568;10.018;2023-02-28T04:04:24;6.83;;;2.00;;
16286;SDS011;8251;53.568;10.018;2023-02-28T04:07:01;2.97;;;1.97;;
16286;SDS011;8251;53.568;10.018;2023-02-28T04:09:34;2.67;;;1.80;;
16286;SDS011;8251;53.568;10.018;2023-02-28T04:12:08;4.63;;;2.37;;
16286;SDS011;8251;53.568;10.018;2023-02-28T04:14:37;3.17;;;2.03;;
16286;SDS011;8251;53.568;10.018;2023-02-28T04:17:05;4.40;;;2.47;;
16286;SDS011;8251;53.568;10.018;2023-02-28T04:19:32;4.03;;;2.30;;
16286;SDS011;8251;53.568;10.018;2023-02-28T04:22:02;7.27;;;2.90;;
16286;SDS011;8251;53.568;10.018;2023-02-28T04:24:35;7.87;;;2.80;;
16286;SDS011;8251;53.568;10.018;2023-02-28T04:27:08;4.53;;;2.47;;
16286;SDS011;8251;53.568;10.018;2023-02-28T04:29:37;4.10;;;2.33;;
16286;SDS011;8251;53.568;10.018;2023-02-28T04:32:05;5.07;;;2.63;;
16286;SDS011;8251;53.568;10.018;2023-02-28T04:34:37;5.17;;;2.40;;
16286;SDS011;8251;53.568;10.018;2023-02-28T04:37:05;5.87;;;2.50;;
16286;SDS011;8251;53.568;10.018;2023-02-28T04:39:38;4.13;;;2.30;;
16286;SDS011;8251;53.568;10.018;2023-02-28T04:42:22;4.33;;;2.70;;
16286;SDS011;8251;53.568;10.018;2023-02-28T04:45:01;3.93;;;2.30;;
16286;SDS011;8251;53.568;10.018;2023-02-28T04:47:28;7.53;;;2.83;;
16286;SDS011;8251;53.568;10.018;2023-02-28T04:50:05;7.47;;;2.40;;
16286;SDS011;8251;53.568;10.018;2023-02-28T04:52:33;3.63;;;2.53;;
16286;SDS011;8251;53.568;10.018;2023-02-28T04:55:07;5.10;;;2.70;;
16286;SDS011;8251;53.568;10.018;2023-02-28T04:57:37;4.13;;;2.90;;
16286;SDS011;8251;53.568;10.018;2023-02-28T05:00:08;5.23;;;2.93;;
16286;SDS011;8251;53.568;10.018;2023-02-28T05:02:42;4.57;;;2.77;;
16286;SDS011;8251;53.568;10.018;2023-02-28T05:05:09;5.60;;;3.27;;
16286;SDS011;8251;53.568;10.018;2023-02-28T05:07:42;7.57;;;3.80;;
16286;SDS011;8251;53.568;10.018;2023-02-28T05:10:18;6.50;;;2.90;;
16286;SDS011;8251;53.568;10.018;2023-02-28T05:12:48;7.27;;;3.20;;
16286;SDS011;8251;53.568;10.018;2023-02-28T05:15:20;8.60;;;3.00;;
16286;SDS011;8251;53.568;10.018;2023-02-28T05:17:49;4.60;;;3.77;;
16286;SDS011;8251;53.568;10.018;2023-02-28T05:20:17;11.30;;;3.00;;
16286;SDS011;8251;53.568;10.018;2023-02-28T05:22:49;7.70;;;3.20;;
16286;SDS011;8251;53.568;10.018;2023-02-28T05:25:30;11.60;;;4.53;;
16286;SDS011;8251;53.568;10.018;2023-02-28T05:27:57;5.33;;;3.07;;
16286;SDS011;8251;53.568;10.018;2023-02-28T05:30:26;6.30;;;3.10;;
16286;SDS011;8251;53.568;10.018;2023-02-28T05:32:57;5.87;;;3.00;;
16286;SDS011;8251;53.568;10.018;2023-02-28T05:35:29;7.53;;;3.30;;
16286;SDS011;8251;53.568;10.018;2023-02-28T05:37:58;7.97;;;3.40;;
16286;SDS011;8251;53.568;10.018;2023-02-28T05:40:26;4.63;;;3.00;;
16286;SDS011;8251;53.568;10.018;2023-02-28T05:42:54;7.73;;;3.73;;
16286;SDS011;8251;53.568;10.018;2023-02-28T05:45:26;7.33;;;3.10;;
16286;SDS011;8251;53.568;10.018;2023-02-28T05:47:57;5.97;;;3.33;;
16286;SDS011;8251;53.568;10.018;2023-02-28T05:50:29;8.83;;;3.27;;
16286;SDS011;8251;53.568;10.018;2023-02-28T05:53:02;4.83;;;2.80;;
16286;SDS011;8251;53.568;10.018;2023-02-28T05:55:41;7.07;;;3.60;;
16286;SDS011;8251;53.568;10.018;2023-02-28T05:58:11;10.00;;;4.10;;
16286;SDS011;8251;53.568;10.018;2023-02-28T06:00:41;8.67;;;2.67;;
16286;SDS011;8251;53.568;10.018;2023-02-28T06:03:13;6.50;;;3.50;;
16286;SDS011;8251;53.568;10.018;2023-02-28T06:05:42;7.63;;;3.43;;
16286;SDS011;8251;53.568;10.018;2023-02-28T06:08:12;10.10;;;4.00;;
16286;SDS011;8251;53.568;10.018;2023-02-28T06:13:37;7.13;;;4.30;;
16286;SDS011;8251;53.568;10.018;2023-02-28T06:16:04;6.30;;;4.00;;
16286;SDS011;8251;53.568;10.018;2023-02-28T06:18:37;5.57;;;3.50;;
16286;SDS011;8251;53.568;10.018;2023-02-28T06:21:09;8.47;;;3.43;;
16286;SDS011;8251;53.568;10.018;2023-02-28T06:23:39;7.73;;;3.67;;
16286;SDS011;8251;53.568;10.018;2023-02-28T06:26:19;9.37;;;4.03;;
16286;SDS011;8251;53.568;10.018;2023-02-28T06:28:46;11.13;;;3.77;;
16286;SDS011;8251;53.568;10.018;2023-02-28T06:31:16;7.83;;;3.80;;
16286;SDS011;8251;53.568;10.018;2023-02-28T06:33:46;7.27;;;3.93;;
16286;SDS011;8251;53.568;10.018;2023-02-28T06:36:21;10.20;;;4.20;;
16286;SDS011;8251;53.568;10.018;2023-02-28T06:38:49;8.73;;;3.70;;
16286;SDS011;8251;53.568;10.018;2023-02-28T06:41:23;8.43;;;3.80;;
16286;SDS011;8251;53.568;10.018;2023-02-28T06:43:57;10.07;;;3.87;;
16286;SDS011;8251;53.568;10.018;2023-02-28T06:46:31;6.17;;;3.57;;
16286;SDS011;8251;53.568;10.018;2023-02-28T06:49:00;5.53;;;3.57;;
16286;SDS011;8251;53.568;10.018;2023-02-28T06:51:30;15.60;;;4.30;;
16286;SDS011;8251;53.568;10.018;2023-02-28T06:54:03;9.07;;;4.20;;
16286;SDS011;8251;53.568;10.018;2023-02-28T06:56:38;9.50;;;4.60;;
16286;SDS011;8251;53.568;10.018;2023-02-28T06:59:10;13.63;;;4.30;;
16286;SDS011;8251;53.568;10.018;2023-02-28T07:01:43;9.87;;;4.00;;
16286;SDS011;8251;53.568;10.018;2023-02-28T07:04:21;12.50;;;4.27;;
16286;SDS011;8251;53.568;10.018;2023-02-28T07:06:51;8.67;;;4.43;;
16286;SDS011;8251;53.568;10.018;2023-02-28T07:09:21;8.53;;;4.73;;
16286;SDS011;8251;53.568;10.018;2023-02-28T07:12:01;11.63;;;4.60;;
16286;SDS011;8251;53.568;10.018;2023-02-28T07:14:33;13.70;;;5.00;;
16286;SDS011;8251;53.568;10.018;2023-02-28T07:17:02;9.57;;;4.87;;
16286;SDS011;8251;53.568;10.018;2023-02-28T07:19:31;10.83;;;4.47;;
16286;SDS011;8251;53.568;10.018;2023-02-28T07:21:58;12.27;;;5.43;;
16286;SDS011;8251;53.568;10.018;2023-02-28T07:24:28;14.00;;;4.87;;
16286;SDS011;8251;53.568;10.018;2023-02-28T07:27:02;9.27;;;4.93;;
16286;SDS011;8251;53.568;10.018;2023-02-28T07:29:29;10.70;;;5.53;;
16286;SDS011;8251;53.568;10.018;2023-02-28T07:31:59;14.23;;;5.37;;
16286;SDS011;8251;53.568;10.018;2023-02-28T07:34:36;11.73;;;5.60;;
16286;SDS011;8251;53.568;10.018;2023-02-28T07:37:08;9.87;;;4.60;;
16286;SDS011;8251;53.568;10.018;2023-02-28T07:39:40;9.80;;;4.73;;
16286;SDS011;8251;53.568;10.018;2023-02-28T07:42:12;22.40;;;5.37;;
16286;SDS011;8251;53.568;10.018;2023-02-28T07:44:44;10.60;;;4.93;;
16286;SDS011;8251;53.568;10.018;2023-02-28T07:47:17;9.17;;;5.77;;
16286;SDS011;8251;53.568;10.018;2023-02-28T07:49:49;6.63;;;3.60;;
16286;SDS011;8251;53.568;10.018;2023-02-28T07:52:20;14.93;;;5.17;;
16286;SDS011;8251;53.568;10.018;2023-02-28T07:54:51;10.50;;;4.37;;
16286;SDS011;8251;53.568;10.018;2023-02-28T07:57:24;10.87;;;4.13;;
16286;SDS011;8251;53.568;10.018;2023-02-28T07:59:54;8.37;;;4.30;;
16286;SDS011;8251;53.568;10.018;2023-02-28T08:02:32;11.67;;;4.33;;
16286;SDS011;8251;53.568;10.018;2023-02-28T08:05:01;6.80;;;3.17;;
16286;SDS011;8251;53.568;10.018;2023-02-28T08:07:29;14.40;;;3.27;;
16286;SDS011;8251;53.568;10.018;2023-02-28T08:10:05;11.93;;;3.93;;
16286;SDS011;8251;53.568;10.018;2023-02-28T08:12:37;9.10;;;3.90;;
16286;SDS011;8251;53.568;10.018;2023-02-28T08:15:09;13.90;;;4.70;;
16286;SDS011;8251;53.568;10.018;2023-02-28T08:17:42;9.37;;;4.07;;
16286;SDS011;8251;53.568;10.018;2023-02-28T08:20:18;7.27;;;4.10;;
16286;SDS011;8251;53.568;10.018;2023-02-28T08:22:53;11.17;;;3.53;;
16286;SDS011;8251;53.568;10.018;2023-02-28T08:25:23;7.27;;;3.63;;
16286;SDS011;8251;53.568;10.018;2023-02-28T08:27:57;7.50;;;3.50;;
16286;SDS011;8251;53.568;10.018;2023-02-28T08:30:24;7.83;;;4.00;;
16286;SDS011;8251;53.568;10.018;2023-02-28T08:32:53;6.87;;;3.23;;
16286;SDS011;8251;53.568;10.018;2023-02-28T08:35:28;8.10;;;3.40;;
16286;SDS011;8251;53.568;10.018;2023-02-28T08:37:57;9.93;;;4.30;;
16286;SDS011;8251;53.568;10.018;2023-02-28T08:40:26;6.00;;;3.30;;
16286;SDS011;8251;53.568;10.018;2023-02-28T08:43:16;13.23;;;3.50;;
16286;SDS011;8251;53.568;10.018;2023-02-28T08:45:44;8.50;;;3.70;;
16286;SDS011;8251;53.568;10.018;2023-02-28T08:48:14;9.50;;;4.43;;
16286;SDS011;8251;53.568;10.018;2023-02-28T08:50:45;11.63;;;5.03;;
16286;SDS011;8251;53.568;10.018;2023-02-28T08:53:28;8.70;;;3.33;;
16286;SDS011;8251;53.568;10.018;2023-02-28T08:56:00;5.30;;;3.13;;
16286;SDS011;8251;53.568;10.018;2023-02-28T08:58:31;6.63;;;3.17;;
16286;SDS011;8251;53.568;10.018;2023-02-28T09:01:00;13.43;;;3.90;;
16286;SDS011;8251;53.568;10.018;2023-02-28T09:03:34;8.13;;;3.03;;
16286;SDS011;8251;53.568;10.018;2023-02-28T09:06:02;9.70;;;4.00;;
16286;SDS011;8251;53.568;10.018;2023-02-28T09:08:32;7.30;;;4.00;;
16286;SDS011;8251;53.568;10.018;2023-02-28T09:11:04;10.33;;;4.23;;
16286;SDS011;8251;53.568;10.018;2023-02-28T09:13:53;5.93;;;3.80;;
16286;SDS011;8251;53.568;10.018;2023-02-28T09:16:27;21.40;;;7.33;;
16286;SDS011;8251;53.568;10.018;2023-02-28T09:19:03;7.50;;;4.00;;
16286;SDS011;8251;53.568;10.018;2023-02-28T09:21:33;11.33;;;3.53;;
16286;SDS011;8251;53.568;10.018;2023-02-28T09:24:08;8.43;;;2.90;;
16286;SDS011;8251;53.568;10.018;2023-02-28T09:26:40;8.30;;;2.73;;
16286;SDS011;8251;53.568;10.018;2023-02-28T09:29:18;8.43;;;2.80;;
16286;SDS011;8251;53.568;10.018;2023-02-28T09:31:47;3.40;;;2.57;;
16286;SDS011;8251;53.568;10.018;2023-02-28T09:34:16;1.90;;;1.37;;
16286;SDS011;8251;53.568;10.018;2023-02-28T09:36:49;1.97;;;1.17;;
16286;SDS011;8251;53.568;10.018;2023-02-28T09:39:20;5.40;;;1.87;;
16286;SDS011;8251;53.568;10.018;2023-02-28T09:41:50;1.57;;;1.30;;
16286;SDS011;8251;53.568;10.018;2023-02-28T09:44:28;2.57;;;1.70;;
16286;SDS011;8251;53.568;10.018;2023-02-28T09:47:00;8.90;;;2.60;;
16286;SDS011;8251;53.568;10.018;2023-02-28T09:49:42;2.13;;;1.60;;
16286;SDS011;8251;53.568;10.018;2023-02-28T09:52:16;9.60;;;1.97;;
16286;SDS011;8251;53.568;10.018;2023-02-28T09:54:48;5.33;;;2.37;;
16286;SDS011;8251;53.568;10.018;2023-02-28T09:57:21;6.53;;;1.73;;
16286;SDS011;8251;53.568;10.018;2023-02-28T10:00:18;2.47;;;1.23;;
16286;SDS011;8251;53.568;10.018;2023-02-28T10:05:59;0.80;;;0.70;;
16286;SDS011;8251;53.568;10.018;2023-02-28T10:08:34;4.67;;;1.47;;
16286;SDS011;8251;53.568;10.018;2023-02-28T10:11:16;3.67;;;1.60;;
16286;SDS011;8251;53.568;10.018;2023-02-28T10:13:52;3.27;;;1.90;;
16286;SDS011;8251;53.568;10.018;2023-02-28T10:16:29;5.93;;;1.20;;
16286;SDS011;8251;53.568;10.018;2023-02-28T10:19:05;3.27;;;1.40;;
16286;SDS011;8251;53.568;10.018;2023-02-28T10:21:41;4.73;;;1.60;;
16286;SDS011;8251;53.568;10.018;2023-02-28T10:24:18;3.23;;;1.60;;
16286;SDS011;8251;53.568;10.018;2023-02-28T10:26:56;2.70;;;1.40;;
16286;SDS011;8251;53.568;10.018;2023-02-28T10:29:32;5.13;;;1.47;;
16286;SDS011;8251;53.568;10.018;2023-02-28T10:32:08;3.87;;;2.60;;
16286;SDS011;8251;53.568;10.018;2023-02-28T10:34:41;3.17;;;2.00;;
16286;SDS011;8251;53.568;10.018;2023-02-28T10:37:14;1.97;;;1.50;;
16286;SDS011;8251;53.568;10.018;2023-02-28T10:39:45;3.67;;;1.43;;
16286;SDS011;8251;53.568;10.018;2023-02-28T10:42:22;1.73;;;1.30;;
16286;SDS011;8251;53.568;10.018;2023-02-28T10:45:09;2.77;;;1.10;;
16286;SDS011;8251;53.568;10.018;2023-02-28T10:47:49;5.90;;;3.10;;
16286;SDS011;8251;53.568;10.018;2023-02-28T10:50:26;15.20;;;3.40;;
16286;SDS011;8251;53.568;10.018;2023-02-28T10:53:05;5.47;;;1.53;;
16286;SDS011;8251;53.568;10.018;2023-02-28T10:55:58;2.17;;;1.10;;
16286;SDS011;8251;53.568;10.018;2023-02-28T10:58:31;5.73;;;1.17;;
16286;SDS011;8251;53.568;10.018;2023-02-28T11:01:14;4.90;;;1.30;;
16286;SDS011;8251;53.568;10.018;2023-02-28T11:04:01;2.93;;;1.30;;
16286;SDS011;8251;53.568;10.018;2023-02-28T11:06:33;1.60;;;1.20;;
16286;SDS011;8251;53.568;10.018;2023-02-28T11:09:03;1.80;;;1.20;;
16286;SDS011;8251;53.568;10.018;2023-02-28T11:11:45;2.57;;;1.20;;
16286;SDS011;8251;53.568;10.018;2023-02-28T11:14:17;4.20;;;1.70;;
16286;SDS011;8251;53.568;10.018;2023-02-28T11:16:57;2.07;;;1.20;;
16286;SDS011;8251;53.568;10.018;2023-02-28T11:19:38;3.10;;;1.40;;
16286;SDS011;8251;53.568;10.018;2023-02-28T11:22:16;3.63;;;1.30;;
16286;SDS011;8251;53.568;10.018;2023-02-28T11:24:49;2.50;;;1.17;;
16286;SDS011;8251;53.568;10.018;2023-02-28T11:30:30;2.37;;;1.40;;
16286;SDS011;8251;53.568;10.018;2023-02-28T11:33:14;5.37;;;1.63;;
16286;SDS011;8251;53.568;10.018;2023-02-28T11:35:53;3.63;;;1.23;;
16286;SDS011;8251;53.568;10.018;2023-02-28T11:38:32;3.50;;;1.50;;
16286;SDS011;8251;53.568;10.018;2023-02-28T11:41:06;5.03;;;1.37;;
16286;SDS011;8251;53.568;10.018;2023-02-28T11:43:53;3.53;;;1.33;;
16286;SDS011;8251;53.568;10.018;2023-02-28T11:46:33;3.03;;;1.30;;
16286;SDS011;8251;53.568;10.018;2023-02-28T11:49:13;1.43;;;1.00;;
16286;SDS011;8251;53.568;10.018;2023-02-28T11:52:02;3.20;;;1.27;;
16286;SDS011;8251;53.568;10.018;2023-02-28T11:54:56;3.50;;;1.50;;
16286;SDS011;8251;53.568;10.018;2023-02-28T11:57:43;2.30;;;1.30;;
16286;SDS011;8251;53.568;10.018;2023-02-28T12:00:32;2.10;;;1.40;;
16286;SDS011;8251;53.568;10.018;2023-02-28T12:03:16;6.37;;;1.60;;
16286;SDS011;8251;53.568;10.018;2023-02-28T12:06:01;2.40;;;1.70;;
16286;SDS011;8251;53.568;10.018;2023-02-28T12:08:44;1.20;;;1.10;;
16286;SDS011;8251;53.568;10.018;2023-02-28T12:11:29;3.20;;;1.30;;
16286;SDS011;8251;53.568;10.018;2023-02-28T12:14:20;4.00;;;1.00;;
16286;SDS011;8251;53.568;10.018;2023-02-28T12:17:16;5.33;;;1.43;;
16286;SDS011;8251;53.568;10.018;2023-02-28T12:20:02;1.80;;;1.10;;
16286;SDS011;8251;53.568;10.018;2023-02-28T12:22:41;2.17;;;1.33;;
16286;SDS011;8251;53.568;10.018;2023-02-28T12:25:36;3.87;;;1.63;;
16286;SDS011;8251;53.568;10.018;2023-02-28T12:28:20;2.20;;;1.77;;
16286;SDS011;8251;53.568;10.018;2023-02-28T12:30:58;6.30;;;1.83;;
16286;SDS011;8251;53.568;10.018;2023-02-28T12:33:35;4.80;;;1.63;;
16286;SDS011;8251;53.568;10.018;2023-02-28T12:36:22;4.37;;;1.53;;
16286;SDS011;8251;53.568;10.018;2023-02-28T12:38:53;4.33;;;1.53;;
16286;SDS011;8251;53.568;10.018;2023-02-28T12:41:32;4.80;;;1.47;;
16286;SDS011;8251;53.568;10.018;2023-02-28T12:44:08;3.07;;;1.40;;
16286;SDS011;8251;53.568;10.018;2023-02-28T12:46:46;4.57;;;1.50;;
16286;SDS011;8251;53.568;10.018;2023-02-28T12:49:27;6.03;;;1.53;;
16286;SDS011;8251;53.568;10.018;2023-02-28T12:52:06;2.93;;;1.60;;
16286;SDS011;8251;53.568;10.018;2023-02-28T12:54:42;4.57;;;1.60;;
16286;SDS011;8251;53.568;10.018;2023-02-28T12:57:18;6.07;;;2.50;;
16286;SDS011;8251;53.568;10.018;2023-02-28T13:00:08;4.73;;;1.70;;
16286;SDS011;8251;53.568;10.018;2023-02-28T13:11:39;6.07;;;1.73;;
16286;SDS011;8251;53.568;10.018;2023-02-28T13:14:24;4.33;;;1.90;;
16286;SDS011;8251;53.568;10.018;2023-02-28T13:16:58;3.60;;;1.53;;
16286;SDS011;8251;53.568;10.018;2023-02-28T13:19:32;4.27;;;2.43;;
16286;SDS011;8251;53.568;10.018;2023-02-28T13:22:18;4.37;;;1.80;;
16286;SDS011;8251;53.568;10.018;2023-02-28T13:38:33;2.30;;;1.70;;
16286;SDS011;8251;53.568;10.018;2023-02-28T13:44:13;1.90;;;1.70;;
16286;SDS011;8251;53.568;10.018;2023-02-28T13:49:52;1.40;;;1.23;;
16286;SDS011;8251;53.568;10.018;2023-02-28T13:52:37;2.57;;;1.67;;
16286;SDS011;8251;53.568;10.018;2023-02-28T13:55:29;1.47;;;1.37;;
16286;SDS011;8251;53.568;10.018;2023-02-28T13:58:07;2.10;;;1.90;;
16286;SDS011;8251;53.568;10.018;2023-02-28T14:00:58;2.73;;;1.30;;
16286;SDS011;8251;53.568;10.018;2023-02-28T14:03:50;4.47;;;1.93;;
16286;SDS011;8251;53.568;10.018;2023-02-28T14:06:29;11.23;;;1.97;;
16286;SDS011;8251;53.568;10.018;2023-02-28T14:09:01;4.10;;;1.90;;
16286;SDS011;8251;53.568;10.018;2023-02-28T14:11:44;2.73;;;1.50;;
16286;SDS011;8251;53.568;10.018;2023-02-28T14:17:18;6.00;;;1.67;;
16286;SDS011;8251;53.568;10.018;2023-02-28T14:19:47;3.03;;;1.43;;
16286;SDS011;8251;53.568;10.018;2023-02-28T14:22:19;5.13;;;2.80;;
16286;SDS011;8251;53.568;10.018;2023-02-28T14:25:11;2.63;;;1.43;;
16286;SDS011;8251;53.568;10.018;2023-02-28T14:28:13;7.03;;;1.90;;
16286;SDS011;8251;53.568;10.018;2023-02-28T14:30:53;4.80;;;1.70;;
16286;SDS011;8251;53.568;10.018;2023-02-28T14:33:40;3.03;;;1.80;;
16286;SDS011;8251;53.568;10.018;2023-02-28T14:36:46;5.33;;;1.80;;
16286;SDS011;8251;53.568;10.018;2023-02-28T14:39:16;3.13;;;1.70;;
16286;SDS011;8251;53.568;10.018;2023-02-28T14:41:47;3.40;;;1.93;;
16286;SDS011;8251;53.568;10.018;2023-02-28T14:44:28;4.20;;;1.70;;
16286;SDS011;8251;53.568;10.018;2023-02-28T14:46:58;3.40;;;1.87;;
16286;SDS011;8251;53.568;10.018;2023-02-28T14:49:35;3.80;;;1.60;;
16286;SDS011;8251;53.568;10.018;2023-02-28T14:52:11;2.87;;;2.00;;
16286;SDS011;8251;53.568;10.018;2023-02-28T14:54:56;3.03;;;1.67;;
16286;SDS011;8251;53.568;10.018;2023-02-28T14:57:29;2.03;;;1.37;;
16286;SDS011;8251;53.568;10.018;2023-02-28T15:00:07;5.70;;;1.67;;
16286;SDS011;8251;53.568;10.018;2023-02-28T15:02:43;6.57;;;3.20;;
16286;SDS011;8251;53.568;10.018;2023-02-28T15:05:23;5.03;;;2.20;;
16286;SDS011;8251;53.568;10.018;2023-02-28T15:08:02;3.67;;;1.70;;
16286;SDS011;8251;53.568;10.018;2023-02-28T15:10:37;3.70;;;1.50;;
16286;SDS011;8251;53.568;10.018;2023-02-28T15:13:12;3.73;;;1.10;;
16286;SDS011;8251;53.568;10.018;2023-02-28T15:15:50;2.07;;;1.30;;
16286;SDS011;8251;53.568;10.018;2023-02-28T15:18:26;5.83;;;1.30;;
16286;SDS011;8251;53.568;10.018;2023-02-28T15:21:14;2.43;;;1.40;;
16286;SDS011;8251;53.568;10.018;2023-02-28T15:23:45;1.07;;;1.03;;
16286;SDS011;8251;53.568;10.018;2023-02-28T15:26:18;5.60;;;1.60;;
16286;SDS011;8251;53.568;10.018;2023-02-28T15:28:49;1.93;;;1.33;;
16286;SDS011;8251;53.568;10.018;2023-02-28T15:31:35;2.83;;;1.50;;
16286;SDS011;8251;53.568;10.018;2023-02-28T15:34:16;5.40;;;1.40;;
16286;SDS011;8251;53.568;10.018;2023-02-28T15:36:47;2.80;;;1.03;;
16286;SDS011;8251;53.568;10.018;2023-02-28T15:39:27;5.80;;;1.53;;
16286;SDS011;8251;53.568;10.018;2023-02-28T15:42:11;1.23;;;1.10;;
16286;SDS011;8251;53.568;10.018;2023-02-28T15:44:46;1.37;;;1.13;;
16286;SDS011;8251;53.568;10.018;2023-02-28T15:47:21;2.57;;;1.23;;
16286;SDS011;8251;53.568;10.018;2023-02-28T15:50:02;3.70;;;1.50;;
16286;SDS011;8251;53.568;10.018;2023-02-28T15:52:46;5.30;;;1.57;;
16286;SDS011;8251;53.568;10.018;2023-02-28T15:55:20;3.03;;;1.27;;
16286;SDS011;8251;53.568;10.018;2023-02-28T15:58:00;3.73;;;1.40;;
16286;SDS011;8251;53.568;10.018;2023-02-28T16:00:30;7.53;;;1.27;;
16286;SDS011;8251;53.568;10.018;2023-02-28T16:03:21;1.80;;;1.40;;
16286;SDS011;8251;53.568;10.018;2023-02-28T16:09:06;2.70;;;1.20;;
16286;SDS011;8251;53.568;10.018;2023-02-28T16:11:46;4.00;;;1.80;;
16286;SDS011;8251;53.568;10.018;2023-02-28T16:14:19;2.27;;;1.30;;
16286;SDS011;8251;53.568;10.018;2023-02-28T16:16:54;2.90;;;1.47;;
16286;SDS011;8251;53.568;10.018;2023-02-28T16:19:30;1.93;;;1.07;;
16286;SDS011;8251;53.568;10.018;2023-02-28T16:22:00;7.83;;;1.63;;
16286;SDS011;8251;53.568;10.018;2023-02-28T16:24:32;1.20;;;1.10;;